sensor_id;sensor_type;location;lat;lon;timestamp;temperature;humidity
9043;DHT22;4556;49.150;8.808;2023-05-02T00:01:22;11.40;99.90
9043;DHT22;4556;49.150;8.808;2023-05-02T00:03:50;11.40;99.90
9043;DHT22;4556;49.150;8.808;2023-05-02T00:06:17;11.40;99.90
9043;DHT22;4556;49.150;8.808;2023-05-02T00:08:44;11.40;99.90
9043;DHT22;4556;49.150;8.808;2023-05-02T00:11:12;11.40;99.90
9043;DHT22;4556;49.150;8.808;2023-05-02T00:13:40;11.30;99.90
9043;DHT22;4556;49.150;8.808;2023-05-02T00:16:08;11.30;99.90
9043;DHT22;4556;49.150;8.808;2023-05-02T00:18:35;11.30;99.90
9043;DHT22;4556;49.150;8.808;2023-05-02T00:21:03;11.30;99.90
9043;DHT22;4556;49.150;8.808;2023-05-02T00:23:30;11.30;99.90
9043;DHT22;4556;49.150;8.808;2023-05-02T00:25:57;11.30;99.90
9043;DHT22;4556;49.150;8.808;2023-05-02T00:28:25;11.30;99.90
9043;DHT22;4556;49.150;8.808;2023-05-02T00:30:52;11.30;99.90
9043;DHT22;4556;49.150;8.808;2023-05-02T00:33:19;11.20;99.90
9043;DHT22;4556;49.150;8.808;2023-05-02T00:35:46;11.20;99.90
9043;DHT22;4556;49.150;8.808;2023-05-02T00:38:13;11.30;99.90
9043;DHT22;4556;49.150;8.808;2023-05-02T00:40:44;11.20;99.90
9043;DHT22;4556;49.150;8.808;2023-05-02T00:43:12;11.30;99.90
9043;DHT22;4556;49.150;8.808;2023-05-02T00:45:41;11.20;99.90
9043;DHT22;4556;49.150;8.808;2023-05-02T00:48:09;11.20;99.90
9043;DHT22;4556;49.150;8.808;2023-05-02T00:50:38;11.20;99.90
9043;DHT22;4556;49.150;8.808;2023-05-02T00:53:06;11.10;99.90
9043;DHT22;4556;49.150;8.808;2023-05-02T00:55:34;11.20;99.90
9043;DHT22;4556;49.150;8.808;2023-05-02T00:58:03;11.10;99.90
9043;DHT22;4556;49.150;8.808;2023-05-02T01:00:39;11.10;99.90
9043;DHT22;4556;49.150;8.808;2023-05-02T01:03:14;11.10;99.90
9043;DHT22;4556;49.150;8.808;2023-05-02T01:05:48;11.10;99.90
9043;DHT22;4556;49.150;8.808;2023-05-02T01:08:24;11.20;99.90
9043;DHT22;4556;49.150;8.808;2023-05-02T01:10:59;11.10;99.90
9043;DHT22;4556;49.150;8.808;2023-05-02T01:13:32;11.00;99.90
9043;DHT22;4556;49.150;8.808;2023-05-02T01:16:01;10.90;99.90
9043;DHT22;4556;49.150;8.808;2023-05-02T01:18:34;10.70;99.90
9043;DHT22;4556;49.150;8.808;2023-05-02T01:21:05;10.70;99.90
9043;DHT22;4556;49.150;8.808;2023-05-02T01:23:40;10.70;99.90
9043;DHT22;4556;49.150;8.808;2023-05-02T01:26:18;10.70;99.90
9043;DHT22;4556;49.150;8.808;2023-05-02T01:28:58;10.60;99.90
9043;DHT22;4556;49.150;8.808;2023-05-02T01:31:26;10.60;99.90
9043;DHT22;4556;49.150;8.808;2023-05-02T01:33:55;10.50;99.90
9043;DHT22;4556;49.150;8.808;2023-05-02T01:36:26;10.50;99.90
9043;DHT22;4556;49.150;8.808;2023-05-02T01:38:56;10.40;99.90
9043;DHT22;4556;49.150;8.808;2023-05-02T01:41:26;10.50;99.90
9043;DHT22;4556;49.150;8.808;2023-05-02T01:43:57;10.30;99.90
9043;DHT22;4556;49.150;8.808;2023-05-02T01:46:26;10.10;99.90
9043;DHT22;4556;49.150;8.808;2023-05-02T01:48:54;10.00;99.90
9043;DHT22;4556;49.150;8.808;2023-05-02T01:51:27;10.10;99.90
9043;DHT22;4556;49.150;8.808;2023-05-02T01:53:57;10.20;99.90
9043;DHT22;4556;49.150;8.808;2023-05-02T01:56:26;10.20;99.90
9043;DHT22;4556;49.150;8.808;2023-05-02T01:58:57;10.10;99.90
9043;DHT22;4556;49.150;8.808;2023-05-02T02:01:26;10.00;99.90
9043;DHT22;4556;49.150;8.808;2023-05-02T02:03:56;9.90;99.90
9043;DHT22;4556;49.150;8.808;2023-05-02T02:06:24;9.90;99.90
9043;DHT22;4556;49.150;8.808;2023-05-02T02:08:52;9.90;99.90
9043;DHT22;4556;49.150;8.808;2023-05-02T02:11:23;9.90;99.90
9043;DHT22;4556;49.150;8.808;2023-05-02T02:13:59;10.00;99.90
9043;DHT22;4556;49.150;8.808;2023-05-02T02:16:32;9.90;99.90
9043;DHT22;4556;49.150;8.808;2023-05-02T02:19:04;9.80;99.90
9043;DHT22;4556;49.150;8.808;2023-05-02T02:21:33;9.90;99.90
9043;DHT22;4556;49.150;8.808;2023-05-02T02:24:04;9.90;99.90
9043;DHT22;4556;49.150;8.808;2023-05-02T02:26:32;9.90;99.90
9043;DHT22;4556;49.150;8.808;2023-05-02T02:29:00;9.90;99.90
9043;DHT22;4556;49.150;8.808;2023-05-02T02:31:31;9.90;99.90
9043;DHT22;4556;49.150;8.808;2023-05-02T02:33:59;9.90;99.90
9043;DHT22;4556;49.150;8.808;2023-05-02T02:36:30;9.70;99.90
9043;DHT22;4556;49.150;8.808;2023-05-02T02:39:05;9.70;99.90
9043;DHT22;4556;49.150;8.808;2023-05-02T02:41:41;9.70;99.90
9043;DHT22;4556;49.150;8.808;2023-05-02T02:44:21;9.60;99.90
9043;DHT22;4556;49.150;8.808;2023-05-02T02:46:59;9.60;99.90
9043;DHT22;4556;49.150;8.808;2023-05-02T02:49:41;9.50;99.90
9043;DHT22;4556;49.150;8.808;2023-05-02T02:52:15;9.40;99.90
9043;DHT22;4556;49.150;8.808;2023-05-02T02:54:46;9.30;99.90
9043;DHT22;4556;49.150;8.808;2023-05-02T02:57:17;9.30;99.90
9043;DHT22;4556;49.150;8.808;2023-05-02T02:59:54;9.30;99.90
9043;DHT22;4556;49.150;8.808;2023-05-02T03:02:29;9.40;99.90
9043;DHT22;4556;49.150;8.808;2023-05-02T03:04:57;9.40;99.90
9043;DHT22;4556;49.150;8.808;2023-05-02T03:07:27;9.40;99.90
9043;DHT22;4556;49.150;8.808;2023-05-02T03:09:54;9.40;99.90
9043;DHT22;4556;49.150;8.808;2023-05-02T03:12:21;9.30;99.90
9043;DHT22;4556;49.150;8.808;2023-05-02T03:14:48;9.40;99.90
9043;DHT22;4556;49.150;8.808;2023-05-02T03:17:15;9.30;99.90
9043;DHT22;4556;49.150;8.808;2023-05-02T03:19:44;9.30;99.90
9043;DHT22;4556;49.150;8.808;2023-05-02T03:22:11;9.20;99.90
9043;DHT22;4556;49.150;8.808;2023-05-02T03:24:38;9.30;99.90
9043;DHT22;4556;49.150;8.808;2023-05-02T03:27:05;9.40;99.90
9043;DHT22;4556;49.150;8.808;2023-05-02T03:29:33;9.40;99.90
9043;DHT22;4556;49.150;8.808;2023-05-02T03:32:00;9.40;99.90
9043;DHT22;4556;49.150;8.808;2023-05-02T03:34:27;9.30;99.90
9043;DHT22;4556;49.150;8.808;2023-05-02T03:36:56;9.30;99.90
9043;DHT22;4556;49.150;8.808;2023-05-02T03:39:23;9.30;99.90
9043;DHT22;4556;49.150;8.808;2023-05-02T03:41:50;9.30;99.90
9043;DHT22;4556;49.150;8.808;2023-05-02T03:44:16;9.30;99.90
9043;DHT22;4556;49.150;8.808;2023-05-02T03:46:44;9.30;99.90
9043;DHT22;4556;49.150;8.808;2023-05-02T03:49:11;9.30;99.90
9043;DHT22;4556;49.150;8.808;2023-05-02T03:51:38;9.30;99.90
9043;DHT22;4556;49.150;8.808;2023-05-02T03:54:07;9.30;99.90
9043;DHT22;4556;49.150;8.808;2023-05-02T03:56:34;9.30;99.90
9043;DHT22;4556;49.150;8.808;2023-05-02T03:59:01;9.30;99.90
9043;DHT22;4556;49.150;8.808;2023-05-02T04:01:28;9.20;99.90
9043;DHT22;4556;49.150;8.808;2023-05-02T04:03:56;9.20;99.90
9043;DHT22;4556;49.150;8.808;2023-05-02T04:06:23;9.10;99.90
9043;DHT22;4556;49.150;8.808;2023-05-02T04:08:49;9.00;99.90
9043;DHT22;4556;49.150;8.808;2023-05-02T04:11:18;8.90;99.90
9043;DHT22;4556;49.150;8.808;2023-05-02T04:13:45;8.80;99.90
9043;DHT22;4556;49.150;8.808;2023-05-02T04:16:12;8.80;99.90
9043;DHT22;4556;49.150;8.808;2023-05-02T04:18:39;8.50;99.90
9043;DHT22;4556;49.150;8.808;2023-05-02T04:21:07;8.40;99.90
9043;DHT22;4556;49.150;8.808;2023-05-02T04:23:35;8.60;99.90
9043;DHT22;4556;49.150;8.808;2023-05-02T04:26:02;8.80;99.90
9043;DHT22;4556;49.150;8.808;2023-05-02T04:28:31;8.90;99.90
9043;DHT22;4556;49.150;8.808;2023-05-02T04:30:58;9.00;99.90
9043;DHT22;4556;49.150;8.808;2023-05-02T04:33:25;9.00;99.90
9043;DHT22;4556;49.150;8.808;2023-05-02T04:35:52;9.00;99.90
9043;DHT22;4556;49.150;8.808;2023-05-02T04:38:19;9.00;99.90
9043;DHT22;4556;49.150;8.808;2023-05-02T04:40:49;9.00;99.90
9043;DHT22;4556;49.150;8.808;2023-05-02T04:43:16;9.00;99.90
9043;DHT22;4556;49.150;8.808;2023-05-02T04:45:44;9.10;99.90
9043;DHT22;4556;49.150;8.808;2023-05-02T04:48:12;9.10;99.90
9043;DHT22;4556;49.150;8.808;2023-05-02T04:50:39;9.00;99.90
9043;DHT22;4556;49.150;8.808;2023-05-02T04:53:06;8.90;99.90
9043;DHT22;4556;49.150;8.808;2023-05-02T04:55:33;9.00;99.90
9043;DHT22;4556;49.150;8.808;2023-05-02T04:58:00;9.00;99.90
9043;DHT22;4556;49.150;8.808;2023-05-02T05:00:27;9.00;99.90
9043;DHT22;4556;49.150;8.808;2023-05-02T05:02:56;9.00;99.90
9043;DHT22;4556;49.150;8.808;2023-05-02T05:05:23;9.20;99.90
9043;DHT22;4556;49.150;8.808;2023-05-02T05:07:50;9.20;99.90
9043;DHT22;4556;49.150;8.808;2023-05-02T05:10:18;9.20;99.90
9043;DHT22;4556;49.150;8.808;2023-05-02T05:12:45;9.20;99.90
9043;DHT22;4556;49.150;8.808;2023-05-02T05:15:12;9.30;99.90
9043;DHT22;4556;49.150;8.808;2023-05-02T05:17:39;9.20;99.90
9043;DHT22;4556;49.150;8.808;2023-05-02T05:20:09;9.30;99.90
9043;DHT22;4556;49.150;8.808;2023-05-02T05:22:39;9.40;99.90
9043;DHT22;4556;49.150;8.808;2023-05-02T05:25:07;9.50;99.90
9043;DHT22;4556;49.150;8.808;2023-05-02T05:27:34;9.50;99.90
9043;DHT22;4556;49.150;8.808;2023-05-02T05:30:02;9.60;99.90
9043;DHT22;4556;49.150;8.808;2023-05-02T05:32:29;9.70;99.90
9043;DHT22;4556;49.150;8.808;2023-05-02T05:34:58;9.70;99.90
9043;DHT22;4556;49.150;8.808;2023-05-02T05:37:26;9.70;99.90
9043;DHT22;4556;49.150;8.808;2023-05-02T05:39:53;9.80;99.90
9043;DHT22;4556;49.150;8.808;2023-05-02T05:42:20;9.90;99.90
9043;DHT22;4556;49.150;8.808;2023-05-02T05:44:47;9.90;99.90
9043;DHT22;4556;49.150;8.808;2023-05-02T05:47:18;10.00;99.90
9043;DHT22;4556;49.150;8.808;2023-05-02T05:49:46;10.10;99.90
9043;DHT22;4556;49.150;8.808;2023-05-02T05:52:13;10.20;99.90
9043;DHT22;4556;49.150;8.808;2023-05-02T05:54:41;10.30;99.90
9043;DHT22;4556;49.150;8.808;2023-05-02T05:57:08;10.30;99.90
9043;DHT22;4556;49.150;8.808;2023-05-02T05:59:35;10.40;99.90
9043;DHT22;4556;49.150;8.808;2023-05-02T06:02:02;10.40;99.90
9043;DHT22;4556;49.150;8.808;2023-05-02T06:04:29;10.40;99.90
9043;DHT22;4556;49.150;8.808;2023-05-02T06:06:57;10.40;99.90
9043;DHT22;4556;49.150;8.808;2023-05-02T06:09:24;10.40;99.90
9043;DHT22;4556;49.150;8.808;2023-05-02T06:11:52;10.40;99.90
9043;DHT22;4556;49.150;8.808;2023-05-02T06:14:20;10.50;99.90
9043;DHT22;4556;49.150;8.808;2023-05-02T06:16:47;10.60;99.90
9043;DHT22;4556;49.150;8.808;2023-05-02T06:19:14;10.60;99.90
9043;DHT22;4556;49.150;8.808;2023-05-02T06:21:41;10.60;99.90
9043;DHT22;4556;49.150;8.808;2023-05-02T06:24:08;10.70;99.90
9043;DHT22;4556;49.150;8.808;2023-05-02T06:26:35;10.80;99.90
9043;DHT22;4556;49.150;8.808;2023-05-02T06:29:04;10.90;99.90
9043;DHT22;4556;49.150;8.808;2023-05-02T06:31:31;10.90;99.90
9043;DHT22;4556;49.150;8.808;2023-05-02T06:33:58;10.90;99.90
9043;DHT22;4556;49.150;8.808;2023-05-02T06:36:24;11.00;99.90
9043;DHT22;4556;49.150;8.808;2023-05-02T06:38:52;11.00;99.90
9043;DHT22;4556;49.150;8.808;2023-05-02T06:41:19;11.00;99.90
9043;DHT22;4556;49.150;8.808;2023-05-02T06:43:46;11.10;99.90
9043;DHT22;4556;49.150;8.808;2023-05-02T06:46:14;11.10;99.90
9043;DHT22;4556;49.150;8.808;2023-05-02T06:48:42;11.20;99.90
9043;DHT22;4556;49.150;8.808;2023-05-02T06:51:08;11.10;99.90
9043;DHT22;4556;49.150;8.808;2023-05-02T06:53:36;11.10;99.90
9043;DHT22;4556;49.150;8.808;2023-05-02T06:56:03;11.10;99.90
9043;DHT22;4556;49.150;8.808;2023-05-02T06:58:31;11.20;99.90
9043;DHT22;4556;49.150;8.808;2023-05-02T07:00:58;11.30;99.90
9043;DHT22;4556;49.150;8.808;2023-05-02T07:03:26;11.40;99.90
9043;DHT22;4556;49.150;8.808;2023-05-02T07:05:53;11.40;99.90
9043;DHT22;4556;49.150;8.808;2023-05-02T07:08:21;11.50;99.90
9043;DHT22;4556;49.150;8.808;2023-05-02T07:10:48;11.60;99.90
9043;DHT22;4556;49.150;8.808;2023-05-02T07:13:15;11.70;99.90
9043;DHT22;4556;49.150;8.808;2023-05-02T07:15:42;11.70;99.90
9043;DHT22;4556;49.150;8.808;2023-05-02T07:18:09;11.70;99.90
9043;DHT22;4556;49.150;8.808;2023-05-02T07:20:38;11.80;99.90
9043;DHT22;4556;49.150;8.808;2023-05-02T07:23:06;11.90;99.90
9043;DHT22;4556;49.150;8.808;2023-05-02T07:25:34;11.90;99.90
9043;DHT22;4556;49.150;8.808;2023-05-02T07:28:01;12.00;99.90
9043;DHT22;4556;49.150;8.808;2023-05-02T07:30:28;12.20;99.90
9043;DHT22;4556;49.150;8.808;2023-05-02T07:32:54;12.40;99.90
9043;DHT22;4556;49.150;8.808;2023-05-02T07:35:22;12.60;99.90
9043;DHT22;4556;49.150;8.808;2023-05-02T07:37:50;12.80;99.90
9043;DHT22;4556;49.150;8.808;2023-05-02T07:40:17;13.00;99.90
9043;DHT22;4556;49.150;8.808;2023-05-02T07:42:44;13.20;99.90
9043;DHT22;4556;49.150;8.808;2023-05-02T07:45:11;13.40;99.90
9043;DHT22;4556;49.150;8.808;2023-05-02T07:47:38;13.50;99.90
9043;DHT22;4556;49.150;8.808;2023-05-02T07:50:06;13.60;99.90
9043;DHT22;4556;49.150;8.808;2023-05-02T07:52:34;13.70;99.90
9043;DHT22;4556;49.150;8.808;2023-05-02T07:55:03;13.60;99.90
9043;DHT22;4556;49.150;8.808;2023-05-02T07:57:30;13.70;99.90
9043;DHT22;4556;49.150;8.808;2023-05-02T07:59:57;13.70;99.90
9043;DHT22;4556;49.150;8.808;2023-05-02T08:02:24;13.80;99.90
9043;DHT22;4556;49.150;8.808;2023-05-02T08:04:51;13.80;99.90
9043;DHT22;4556;49.150;8.808;2023-05-02T08:07:19;13.70;99.90
9043;DHT22;4556;49.150;8.808;2023-05-02T08:09:46;13.90;99.90
9043;DHT22;4556;49.150;8.808;2023-05-02T08:12:14;14.00;99.90
9043;DHT22;4556;49.150;8.808;2023-05-02T08:14:41;14.30;99.90
9043;DHT22;4556;49.150;8.808;2023-05-02T08:17:09;14.50;99.90
9043;DHT22;4556;49.150;8.808;2023-05-02T08:19:35;14.50;99.90
9043;DHT22;4556;49.150;8.808;2023-05-02T08:22:03;14.60;99.90
9043;DHT22;4556;49.150;8.808;2023-05-02T08:24:30;14.70;99.90
9043;DHT22;4556;49.150;8.808;2023-05-02T08:26:57;14.80;99.90
9043;DHT22;4556;49.150;8.808;2023-05-02T08:29:25;15.00;99.90
9043;DHT22;4556;49.150;8.808;2023-05-02T08:31:52;15.10;99.90
9043;DHT22;4556;49.150;8.808;2023-05-02T08:34:19;15.20;99.90
9043;DHT22;4556;49.150;8.808;2023-05-02T08:36:46;15.10;99.90
9043;DHT22;4556;49.150;8.808;2023-05-02T08:39:13;15.10;99.90
9043;DHT22;4556;49.150;8.808;2023-05-02T08:41:41;14.90;99.90
9043;DHT22;4556;49.150;8.808;2023-05-02T08:44:09;14.80;99.90
9043;DHT22;4556;49.150;8.808;2023-05-02T08:46:40;14.80;99.90
9043;DHT22;4556;49.150;8.808;2023-05-02T08:49:10;15.00;99.90
9043;DHT22;4556;49.150;8.808;2023-05-02T08:51:37;15.40;99.90
9043;DHT22;4556;49.150;8.808;2023-05-02T08:54:08;15.40;99.90
9043;DHT22;4556;49.150;8.808;2023-05-02T08:56:36;15.50;99.90
9043;DHT22;4556;49.150;8.808;2023-05-02T08:59:05;15.40;99.90
9043;DHT22;4556;49.150;8.808;2023-05-02T09:01:34;15.30;99.90
9043;DHT22;4556;49.150;8.808;2023-05-02T09:04:03;15.00;99.90
9043;DHT22;4556;49.150;8.808;2023-05-02T09:06:30;15.00;99.90
9043;DHT22;4556;49.150;8.808;2023-05-02T09:08:59;15.20;99.90
9043;DHT22;4556;49.150;8.808;2023-05-02T09:11:26;15.40;99.90
9043;DHT22;4556;49.150;8.808;2023-05-02T09:13:53;15.30;99.90
9043;DHT22;4556;49.150;8.808;2023-05-02T09:16:24;15.40;99.90
9043;DHT22;4556;49.150;8.808;2023-05-02T09:18:53;15.70;99.90
9043;DHT22;4556;49.150;8.808;2023-05-02T09:21:23;15.90;99.90
9043;DHT22;4556;49.150;8.808;2023-05-02T09:23:52;16.00;99.90
9043;DHT22;4556;49.150;8.808;2023-05-02T09:26:20;16.00;99.90
9043;DHT22;4556;49.150;8.808;2023-05-02T09:28:49;15.90;99.90
9043;DHT22;4556;49.150;8.808;2023-05-02T09:31:17;16.00;99.90
9043;DHT22;4556;49.150;8.808;2023-05-02T09:33:44;16.10;99.90
9043;DHT22;4556;49.150;8.808;2023-05-02T09:36:13;16.30;99.90
9043;DHT22;4556;49.150;8.808;2023-05-02T09:38:42;16.50;99.90
9043;DHT22;4556;49.150;8.808;2023-05-02T09:41:10;16.40;99.90
9043;DHT22;4556;49.150;8.808;2023-05-02T09:43:37;16.40;99.90
9043;DHT22;4556;49.150;8.808;2023-05-02T09:46:06;16.30;99.90
9043;DHT22;4556;49.150;8.808;2023-05-02T09:48:52;16.10;99.90
9043;DHT22;4556;49.150;8.808;2023-05-02T09:51:21;16.00;99.90
9043;DHT22;4556;49.150;8.808;2023-05-02T09:53:50;15.80;99.90
9043;DHT22;4556;49.150;8.808;2023-05-02T09:56:18;15.80;99.90
9043;DHT22;4556;49.150;8.808;2023-05-02T09:58:45;15.80;99.90
9043;DHT22;4556;49.150;8.808;2023-05-02T10:01:16;15.60;99.90
9043;DHT22;4556;49.150;8.808;2023-05-02T10:03:46;15.50;99.90
9043;DHT22;4556;49.150;8.808;2023-05-02T10:06:14;15.90;99.90
9043;DHT22;4556;49.150;8.808;2023-05-02T10:08:42;16.00;99.90
9043;DHT22;4556;49.150;8.808;2023-05-02T10:11:13;16.10;99.90
9043;DHT22;4556;49.150;8.808;2023-05-02T10:13:42;16.30;99.90
9043;DHT22;4556;49.150;8.808;2023-05-02T10:16:11;16.40;99.90
9043;DHT22;4556;49.150;8.808;2023-05-02T10:18:42;16.60;99.90
9043;DHT22;4556;49.150;8.808;2023-05-02T10:21:16;16.60;99.90
9043;DHT22;4556;49.150;8.808;2023-05-02T10:23:43;16.50;99.90
9043;DHT22;4556;49.150;8.808;2023-05-02T10:26:15;16.60;99.90
9043;DHT22;4556;49.150;8.808;2023-05-02T10:28:43;16.60;99.90
9043;DHT22;4556;49.150;8.808;2023-05-02T10:31:12;16.40;99.90
9043;DHT22;4556;49.150;8.808;2023-05-02T10:33:40;16.10;99.90
9043;DHT22;4556;49.150;8.808;2023-05-02T10:36:09;15.80;99.90
9043;DHT22;4556;49.150;8.808;2023-05-02T10:38:38;15.60;99.90
9043;DHT22;4556;49.150;8.808;2023-05-02T10:41:08;15.50;99.90
9043;DHT22;4556;49.150;8.808;2023-05-02T10:43:37;15.40;99.90
9043;DHT22;4556;49.150;8.808;2023-05-02T10:46:28;15.40;99.90
9043;DHT22;4556;49.150;8.808;2023-05-02T10:49:04;15.40;99.90
9043;DHT22;4556;49.150;8.808;2023-05-02T10:51:32;15.40;99.90
9043;DHT22;4556;49.150;8.808;2023-05-02T10:54:18;15.60;99.90
9043;DHT22;4556;49.150;8.808;2023-05-02T10:57:01;15.80;99.90
9043;DHT22;4556;49.150;8.808;2023-05-02T10:59:33;15.90;99.90
9043;DHT22;4556;49.150;8.808;2023-05-02T11:02:00;16.10;99.90
9043;DHT22;4556;49.150;8.808;2023-05-02T11:04:58;16.00;99.90
9043;DHT22;4556;49.150;8.808;2023-05-02T11:07:27;16.20;99.90
9043;DHT22;4556;49.150;8.808;2023-05-02T11:10:25;16.30;99.90
9043;DHT22;4556;49.150;8.808;2023-05-02T11:12:54;16.00;99.90
9043;DHT22;4556;49.150;8.808;2023-05-02T11:15:57;15.90;99.90
9043;DHT22;4556;49.150;8.808;2023-05-02T11:18:24;15.90;99.90
9043;DHT22;4556;49.150;8.808;2023-05-02T11:20:51;15.90;99.90
9043;DHT22;4556;49.150;8.808;2023-05-02T11:23:39;15.90;99.90
9043;DHT22;4556;49.150;8.808;2023-05-02T11:26:20;16.10;99.90
9043;DHT22;4556;49.150;8.808;2023-05-02T11:28:48;16.10;99.90
9043;DHT22;4556;49.150;8.808;2023-05-02T11:34:41;15.80;99.90
9043;DHT22;4556;49.150;8.808;2023-05-02T11:37:11;16.20;99.90
9043;DHT22;4556;49.150;8.808;2023-05-02T11:39:40;16.50;99.90
9043;DHT22;4556;49.150;8.808;2023-05-02T11:42:08;16.70;99.90
9043;DHT22;4556;49.150;8.808;2023-05-02T11:44:56;16.50;99.90
9043;DHT22;4556;49.150;8.808;2023-05-02T11:47:24;16.40;99.90
9043;DHT22;4556;49.150;8.808;2023-05-02T11:49:53;16.40;99.90
9043;DHT22;4556;49.150;8.808;2023-05-02T11:52:21;16.30;99.90
9043;DHT22;4556;49.150;8.808;2023-05-02T11:54:53;16.10;99.90
9043;DHT22;4556;49.150;8.808;2023-05-02T11:57:21;15.90;99.90
9043;DHT22;4556;49.150;8.808;2023-05-02T11:59:49;15.80;99.90
9043;DHT22;4556;49.150;8.808;2023-05-02T12:02:16;15.70;99.90
9043;DHT22;4556;49.150;8.808;2023-05-02T12:04:44;15.80;99.90
9043;DHT22;4556;49.150;8.808;2023-05-02T12:07:12;15.80;99.90
9043;DHT22;4556;49.150;8.808;2023-05-02T12:09:57;15.90;99.90
9043;DHT22;4556;49.150;8.808;2023-05-02T12:12:24;16.00;99.90
9043;DHT22;4556;49.150;8.808;2023-05-02T12:14:51;16.10;99.90
9043;DHT22;4556;49.150;8.808;2023-05-02T12:17:19;16.20;99.90
9043;DHT22;4556;49.150;8.808;2023-05-02T12:19:46;16.30;99.90
9043;DHT22;4556;49.150;8.808;2023-05-02T12:22:16;16.50;99.90
9043;DHT22;4556;49.150;8.808;2023-05-02T12:24:43;16.40;99.90
9043;DHT22;4556;49.150;8.808;2023-05-02T12:27:11;16.40;99.90
9043;DHT22;4556;49.150;8.808;2023-05-02T12:29:40;16.50;99.90
9043;DHT22;4556;49.150;8.808;2023-05-02T12:32:07;16.40;99.90
9043;DHT22;4556;49.150;8.808;2023-05-02T12:34:35;16.30;99.90
9043;DHT22;4556;49.150;8.808;2023-05-02T12:37:03;16.10;99.90
9043;DHT22;4556;49.150;8.808;2023-05-02T12:39:36;16.20;99.90
9043;DHT22;4556;49.150;8.808;2023-05-02T12:42:10;16.30;99.90
9043;DHT22;4556;49.150;8.808;2023-05-02T12:44:38;16.50;99.90
9043;DHT22;4556;49.150;8.808;2023-05-02T12:47:06;16.50;99.90
9043;DHT22;4556;49.150;8.808;2023-05-02T12:49:47;16.70;99.90
9043;DHT22;4556;49.150;8.808;2023-05-02T12:52:15;16.70;99.90
9043;DHT22;4556;49.150;8.808;2023-05-02T12:54:43;16.70;99.90
9043;DHT22;4556;49.150;8.808;2023-05-02T12:57:21;16.60;99.90
9043;DHT22;4556;49.150;8.808;2023-05-02T12:59:50;16.60;99.90
9043;DHT22;4556;49.150;8.808;2023-05-02T13:02:19;16.60;99.90
9043;DHT22;4556;49.150;8.808;2023-05-02T13:04:47;16.50;99.90
9043;DHT22;4556;49.150;8.808;2023-05-02T13:07:14;16.60;99.90
9043;DHT22;4556;49.150;8.808;2023-05-02T13:09:42;16.70;99.90
9043;DHT22;4556;49.150;8.808;2023-05-02T13:12:09;16.70;99.90
9043;DHT22;4556;49.150;8.808;2023-05-02T13:14:37;16.90;99.90
9043;DHT22;4556;49.150;8.808;2023-05-02T13:17:04;16.90;99.90
9043;DHT22;4556;49.150;8.808;2023-05-02T13:19:32;16.80;99.90
9043;DHT22;4556;49.150;8.808;2023-05-02T13:22:00;17.00;99.90
9043;DHT22;4556;49.150;8.808;2023-05-02T13:24:27;17.10;99.90
9043;DHT22;4556;49.150;8.808;2023-05-02T13:26:55;17.10;99.90
9043;DHT22;4556;49.150;8.808;2023-05-02T13:29:23;17.10;99.90
9043;DHT22;4556;49.150;8.808;2023-05-02T13:31:50;17.00;99.90
9043;DHT22;4556;49.150;8.808;2023-05-02T13:34:17;17.00;99.90
9043;DHT22;4556;49.150;8.808;2023-05-02T13:36:44;16.90;99.90
9043;DHT22;4556;49.150;8.808;2023-05-02T13:39:11;16.90;99.90
9043;DHT22;4556;49.150;8.808;2023-05-02T13:41:38;16.90;99.90
9043;DHT22;4556;49.150;8.808;2023-05-02T13:44:07;16.90;99.90
9043;DHT22;4556;49.150;8.808;2023-05-02T13:46:34;17.00;99.90
9043;DHT22;4556;49.150;8.808;2023-05-02T13:49:02;17.00;99.90
9043;DHT22;4556;49.150;8.808;2023-05-02T13:51:30;17.10;99.90
9043;DHT22;4556;49.150;8.808;2023-05-02T13:53:57;17.10;99.90
9043;DHT22;4556;49.150;8.808;2023-05-02T13:56:24;17.00;99.90
9043;DHT22;4556;49.150;8.808;2023-05-02T13:58:51;17.10;99.90
9043;DHT22;4556;49.150;8.808;2023-05-02T14:01:20;17.20;99.90
9043;DHT22;4556;49.150;8.808;2023-05-02T14:03:47;17.20;99.90
9043;DHT22;4556;49.150;8.808;2023-05-02T14:06:14;17.20;99.90
9043;DHT22;4556;49.150;8.808;2023-05-02T14:08:41;17.00;99.90
9043;DHT22;4556;49.150;8.808;2023-05-02T14:11:09;17.00;99.90
9043;DHT22;4556;49.150;8.808;2023-05-02T14:13:36;17.00;99.90
9043;DHT22;4556;49.150;8.808;2023-05-02T14:16:04;17.00;99.90
9043;DHT22;4556;49.150;8.808;2023-05-02T14:18:33;17.00;99.90
9043;DHT22;4556;49.150;8.808;2023-05-02T14:21:00;16.90;99.90
9043;DHT22;4556;49.150;8.808;2023-05-02T14:23:28;16.90;99.90
9043;DHT22;4556;49.150;8.808;2023-05-02T14:25:55;16.90;99.90
9043;DHT22;4556;49.150;8.808;2023-05-02T14:28:23;16.90;99.90
9043;DHT22;4556;49.150;8.808;2023-05-02T14:30:51;17.00;99.90
9043;DHT22;4556;49.150;8.808;2023-05-02T14:33:18;17.00;99.90
9043;DHT22;4556;49.150;8.808;2023-05-02T14:35:47;17.00;99.90
9043;DHT22;4556;49.150;8.808;2023-05-02T14:38:14;17.00;99.90
9043;DHT22;4556;49.150;8.808;2023-05-02T14:40:41;17.00;99.90
9043;DHT22;4556;49.150;8.808;2023-05-02T14:43:08;17.00;99.90
9043;DHT22;4556;49.150;8.808;2023-05-02T14:45:36;16.90;99.90
9043;DHT22;4556;49.150;8.808;2023-05-02T14:48:03;16.90;99.90
9043;DHT22;4556;49.150;8.808;2023-05-02T14:50:31;17.00;99.90
9043;DHT22;4556;49.150;8.808;2023-05-02T14:52:59;17.10;99.90
9043;DHT22;4556;49.150;8.808;2023-05-02T14:55:26;17.20;99.90
9043;DHT22;4556;49.150;8.808;2023-05-02T14:57:53;17.10;99.90
9043;DHT22;4556;49.150;8.808;2023-05-02T15:00:21;17.10;99.90
9043;DHT22;4556;49.150;8.808;2023-05-02T15:02:48;17.00;99.90
9043;DHT22;4556;49.150;8.808;2023-05-02T15:05:15;17.00;99.90
9043;DHT22;4556;49.150;8.808;2023-05-02T15:07:42;17.00;99.90
9043;DHT22;4556;49.150;8.808;2023-05-02T15:10:11;16.90;99.90
9043;DHT22;4556;49.150;8.808;2023-05-02T15:12:38;17.00;99.90
9043;DHT22;4556;49.150;8.808;2023-05-02T15:15:06;17.00;99.90
9043;DHT22;4556;49.150;8.808;2023-05-02T15:17:33;16.90;99.90
9043;DHT22;4556;49.150;8.808;2023-05-02T15:20:00;16.90;99.90
9043;DHT22;4556;49.150;8.808;2023-05-02T15:22:28;16.90;99.90
9043;DHT22;4556;49.150;8.808;2023-05-02T15:24:55;16.90;99.90
9043;DHT22;4556;49.150;8.808;2023-05-02T15:27:24;17.00;99.90
9043;DHT22;4556;49.150;8.808;2023-05-02T15:29:51;17.00;99.90
9043;DHT22;4556;49.150;8.808;2023-05-02T15:32:18;16.90;99.90
9043;DHT22;4556;49.150;8.808;2023-05-02T15:34:46;16.70;99.90
9043;DHT22;4556;49.150;8.808;2023-05-02T15:37:13;16.70;99.90
9043;DHT22;4556;49.150;8.808;2023-05-02T15:39:40;16.70;99.90
9043;DHT22;4556;49.150;8.808;2023-05-02T15:42:07;16.80;99.90
9043;DHT22;4556;49.150;8.808;2023-05-02T15:44:37;16.80;99.90
9043;DHT22;4556;49.150;8.808;2023-05-02T15:47:04;16.80;99.90
9043;DHT22;4556;49.150;8.808;2023-05-02T15:49:31;16.80;99.90
9043;DHT22;4556;49.150;8.808;2023-05-02T15:51:59;16.80;99.90
9043;DHT22;4556;49.150;8.808;2023-05-02T15:54:26;16.80;99.90
9043;DHT22;4556;49.150;8.808;2023-05-02T15:56:53;16.80;99.90
9043;DHT22;4556;49.150;8.808;2023-05-02T15:59:20;16.80;99.90
9043;DHT22;4556;49.150;8.808;2023-05-02T16:01:49;16.70;99.90
9043;DHT22;4556;49.150;8.808;2023-05-02T16:04:16;16.70;99.90
9043;DHT22;4556;49.150;8.808;2023-05-02T16:06:43;16.70;99.90
9043;DHT22;4556;49.150;8.808;2023-05-02T16:09:10;16.70;99.90
9043;DHT22;4556;49.150;8.808;2023-05-02T16:11:37;16.60;99.90
9043;DHT22;4556;49.150;8.808;2023-05-02T16:14:04;16.50;99.90
9043;DHT22;4556;49.150;8.808;2023-05-02T16:16:31;16.40;99.90
9043;DHT22;4556;49.150;8.808;2023-05-02T16:19:00;16.30;99.90